Observation data for Floydada on 01/21/2021      Previous  Date  Next       Current Mesonet Observations  Soil Data  Daily Summary Page  Observations in Plain Language
KFLS 210600Z 24014KT 09/01 A3002 RMK A01 T00870014  RH  061%=      5-min Rain = 0
KFLS 210605Z 24013KT 09/01 A3002 RMK A01 T00860014  RH  061%=      5-min Rain = 0
KFLS 210610Z 24014KT 09/01 A3002 RMK A01 T00860014  RH  061%=      5-min Rain = 0
KFLS 210615Z 24014G19KT 09/01 A3002 RMK A01 T00850014  RH  062%=      5-min Rain = 0
KFLS 210620Z 24013KT 09/01 A3001 RMK A01 T00850014  RH  062%=      5-min Rain = 0
KFLS 210625Z 24013KT 09/01 A3001 RMK A01 T00850014  RH  062%=      5-min Rain = 0
KFLS 210630Z 24014KT 09/01 A3001 RMK A01 T00850014  RH  062%=      5-min Rain = 0
KFLS 210635Z 24014KT 09/01 A3001 RMK A01 T00860014  RH  061%=      5-min Rain = 0
KFLS 210640Z 24015KT 09/01 A3001 RMK A01 T00860014  RH  061%=      5-min Rain = 0
KFLS 210645Z 24016KT 09/02 A3001 RMK A01 T00870015  RH  061%=      5-min Rain = 0
KFLS 210650Z 24015G20KT 09/02 A3001 RMK A01 T00870015  RH  061%=      5-min Rain = 0
KFLS 210655Z 24015KT 09/02 A3001 RMK A01 T00860015  RH  062%=      5-min Rain = 0
KFLS 210700Z 24017KT 09/02 A30 RMK A01 T00860015  RH  062%=      5-min Rain = 0
KFLS 210705Z 25017G22KT 09/02 A30 RMK A01 T00870015  RH  061%=      5-min Rain = 0
KFLS 210710Z 25016G21KT 09/02 A30 RMK A01 T00880015  RH  061%=      5-min Rain = 0
KFLS 210715Z 25016G21KT 09/02 A30 RMK A01 T00900015  RH  060%=      5-min Rain = 0
KFLS 210720Z 25016KT 09/02 A30 RMK A01 T00900015  RH  060%=      5-min Rain = 0
KFLS 210725Z 25016G21KT 09/02 A30 RMK A01 T00910015  RH  060%=      5-min Rain = 0
KFLS 210730Z 25017KT 09/01 A30 RMK A01 T00910014  RH  059%=      5-min Rain = 0
KFLS 210735Z 25017G22KT 09/01 A30 RMK A01 T00910014  RH  059%=      5-min Rain = 0
KFLS 210740Z 25018KT 09/01 A2999 RMK A01 T00910014  RH  059%=      5-min Rain = 0
KFLS 210745Z 25017G22KT 09/01 A2999 RMK A01 T00900014  RH  060%=      5-min Rain = 0
KFLS 210750Z 25016G22KT 09/01 A2999 RMK A01 T00890014  RH  060%=      5-min Rain = 0
KFLS 210755Z 25016G21KT 09/01 A2999 RMK A01 T00890014  RH  060%=      5-min Rain = 0
KFLS 210800Z 25015KT 09/01 A2999 RMK A01 T00880014  RH  060%=      5-min Rain = 0
KFLS 210805Z 25015KT 09/01 A2999 RMK A01 T00880013  RH  060%=      5-min Rain = 0
KFLS 210810Z 25015G20KT 09/01 A2999 RMK A01 T00880013  RH  060%=      5-min Rain = 0
KFLS 210815Z 25016KT 09/01 A2999 RMK A01 T00880013  RH  060%=      5-min Rain = 0
KFLS 210820Z 25016KT 09/01 A2999 RMK A01 T00880013  RH  060%=      5-min Rain = 0
KFLS 210825Z 25016KT 09/01 A2999 RMK A01 T00880012  RH  060%=      5-min Rain = 0
KFLS 210830Z 25016KT 09/01 A2999 RMK A01 T00880012  RH  060%=      5-min Rain = 0
KFLS 210835Z 25015KT 09/01 A2999 RMK A01 T00870012  RH  060%=      5-min Rain = 0
KFLS 210840Z 25016KT 09/01 A2999 RMK A01 T00890011  RH  059%=      5-min Rain = 0
KFLS 210845Z 25017KT 09/01 A2999 RMK A01 T00890011  RH  059%=      5-min Rain = 0
KFLS 210850Z 25016G22KT 09/01 A30 RMK A01 T00890011  RH  059%=      5-min Rain = 0
KFLS 210855Z 26016G21KT 09/01 A2999 RMK A01 T00900010  RH  058%=      5-min Rain = 0
KFLS 210900Z 26014KT 09/01 A2999 RMK A01 T00890009  RH  058%=      5-min Rain = 0
KFLS 210905Z 26013KT 09/01 A2999 RMK A01 T00890007  RH  057%=      5-min Rain = 0
KFLS 210910Z 26015KT 09/01 A2999 RMK A01 T00910006  RH  056%=      5-min Rain = 0
KFLS 210915Z 26015G21KT 09/01 A2999 RMK A01 T00920006  RH  055%=      5-min Rain = 0
KFLS 210920Z 26014KT 09/01 A2999 RMK A01 T00920005  RH  055%=      5-min Rain = 0
KFLS 210925Z 25014KT 09/00 A2999 RMK A01 T00910004  RH  055%=      5-min Rain = 0
KFLS 210930Z 25012KT 09/00 A2999 RMK A01 T00900004  RH  055%=      5-min Rain = 0
KFLS 210935Z 25013KT 09/00 A2999 RMK A01 T00880004  RH  056%=      5-min Rain = 0
KFLS 210940Z 26013KT 09/00 A2998 RMK A01 T00890003  RH  056%=      5-min Rain = 0
KFLS 210945Z 26012KT 09/00 A2998 RMK A01 T00880003  RH  056%=      5-min Rain = 0
KFLS 210950Z 26014KT 09/00 A2997 RMK A01 T00890002  RH  055%=      5-min Rain = 0
KFLS 210955Z 26013KT 09/00 A2997 RMK A01 T00900002  RH  055%=      5-min Rain = 0
KFLS 211000Z 26013KT 09/00 A2997 RMK A01 T00890001  RH  055%=      5-min Rain = 0
KFLS 211005Z 26012KT 09/00 A2996 RMK A01 T00890001  RH  054%=      5-min Rain = 0
KFLS 211010Z 26013KT 09/00 A2997 RMK A01 T00890001  RH  054%=      5-min Rain = 0
KFLS 211015Z 26013KT 09/00 A2996 RMK A01 T009000-0  RH  054%=      5-min Rain = 0
KFLS 211020Z 26013KT 09/M00 A2997 RMK A01 T00901001  RH  053%=      5-min Rain = 0
KFLS 211025Z 26013KT 09/M00 A2996 RMK A01 T00911002  RH  053%=      5-min Rain = 0
KFLS 211030Z 26013KT 09/M00 A2997 RMK A01 T00921002  RH  052%=      5-min Rain = 0
KFLS 211035Z 26013KT 09/M00 A2996 RMK A01 T00911003  RH  052%=      5-min Rain = 0
KFLS 211040Z 26014KT 09/M00 A2996 RMK A01 T00911003  RH  052%=      5-min Rain = 0
KFLS 211045Z 26014KT 09/M00 A2995 RMK A01 T00901003  RH  052%=      5-min Rain = 0
KFLS 211050Z 26014KT 09/M00 A2995 RMK A01 T00901004  RH  052%=      5-min Rain = 0
KFLS 211055Z 26014KT 09/M00 A2995 RMK A01 T00911004  RH  052%=      5-min Rain = 0
KFLS 211100Z 27014KT 09/M00 A2996 RMK A01 T00901004  RH  052%=      5-min Rain = 0
KFLS 211105Z 27016KT 09/M01 A2997 RMK A01 T00911005  RH  052%=      5-min Rain = 0
KFLS 211110Z 27015KT 09/M01 A2997 RMK A01 T00911005  RH  051%=      5-min Rain = 0
KFLS 211115Z 27016G22KT 09/M01 A2997 RMK A01 T00921005  RH  051%=      5-min Rain = 0
KFLS 211120Z 27016KT 09/M01 A2996 RMK A01 T00901005  RH  052%=      5-min Rain = 0
KFLS 211125Z 27015KT 09/M01 A2997 RMK A01 T00901005  RH  052%=      5-min Rain = 0
KFLS 211130Z 27014KT 09/M01 A2997 RMK A01 T00891005  RH  052%=      5-min Rain = 0
KFLS 211135Z 27015KT 09/M01 A2996 RMK A01 T00891006  RH  052%=      5-min Rain = 0
KFLS 211140Z 27014KT 09/M01 A2996 RMK A01 T00891006  RH  052%=      5-min Rain = 0
KFLS 211145Z 27015KT 09/M01 A2996 RMK A01 T00881006  RH  052%=      5-min Rain = 0
KFLS 211150Z 27014G19KT 09/M01 A2996 RMK A01 T00861007  RH  053%=      5-min Rain = 0
KFLS 211155Z 27014KT 09/M01 A2996 RMK A01 T00861006  RH  053%=      5-min Rain = 0
KFLS 211200Z 27015KT 09/M01 A2997 RMK A01 T00861007  RH  053%=      5-min Rain = 0
KFLS 211205Z 27015KT 09/M01 A2996 RMK A01 T00861007  RH  052%=      5-min Rain = 0
KFLS 211210Z 27014KT 09/M01 A2996 RMK A01 T00861008  RH  052%=      5-min Rain = 0
KFLS 211215Z 27014KT 09/M01 A2996 RMK A01 T00861008  RH  052%=      5-min Rain = 0
KFLS 211220Z 28014G19KT 09/M01 A2996 RMK A01 T00851008  RH  053%=      5-min Rain = 0
KFLS 211225Z 28015KT 09/M01 A2996 RMK A01 T00851008  RH  053%=      5-min Rain = 0
KFLS 211230Z 28014KT 08/M01 A2996 RMK A01 T00841008  RH  053%=      5-min Rain = 0
KFLS 211235Z 28014G19KT 08/M01 A2996 RMK A01 T00841009  RH  053%=      5-min Rain = 0
KFLS 211240Z 28015KT 08/M01 A2995 RMK A01 T00841009  RH  052%=      5-min Rain = 0
KFLS 211245Z 28014KT 09/M01 A2995 RMK A01 T00851009  RH  052%=      5-min Rain = 0
KFLS 211250Z 28013G18KT 08/M01 A2996 RMK A01 T00841010  RH  052%=      5-min Rain = 0
KFLS 211255Z 27013KT 09/M01 A2996 RMK A01 T00851010  RH  052%=      5-min Rain = 0
KFLS 211300Z 28013KT 09/M01 A2996 RMK A01 T00851010  RH  052%=      5-min Rain = 0
KFLS 211305Z 28012KT 09/M01 A2996 RMK A01 T00851010  RH  052%=      5-min Rain = 0
KFLS 211310Z 28013KT 09/M01 A2996 RMK A01 T00851011  RH  051%=      5-min Rain = 0
KFLS 211315Z 28012KT 09/M01 A2996 RMK A01 T00851011  RH  051%=      5-min Rain = 0
KFLS 211320Z 27011KT 08/M01 A2996 RMK A01 T00841011  RH  052%=      5-min Rain = 0
KFLS 211325Z 27011KT 08/M01 A2996 RMK A01 T00841011  RH  052%=      5-min Rain = 0
KFLS 211330Z 28011KT 08/M01 A2996 RMK A01 T00841011  RH  052%=      5-min Rain = 0
KFLS 211335Z 28011KT 08/M01 A2996 RMK A01 T00821011  RH  052%=      5-min Rain = 0
KFLS 211340Z 28010KT 08/M01 A2996 RMK A01 T00811011  RH  053%=      5-min Rain = 0
KFLS 211345Z 28010KT 08/M01 A2996 RMK A01 T00811011  RH  053%=      5-min Rain = 0
KFLS 211350Z 28010KT 08/M01 A2995 RMK A01 T00811011  RH  053%=      5-min Rain = 0
KFLS 211355Z 27010KT 08/M01 A2995 RMK A01 T00801011  RH  053%=      5-min Rain = 0
KFLS 211400Z 27010KT 08/M01 A2995 RMK A01 T00801011  RH  053%=      5-min Rain = 0
KFLS 211405Z 27009KT 08/M01 A2995 RMK A01 T00791011  RH  053%=      5-min Rain = 0
KFLS 211410Z 27009KT 08/M01 A2995 RMK A01 T00801011  RH  053%=      5-min Rain = 0
KFLS 211415Z 28010KT 08/M01 A2996 RMK A01 T00801011  RH  053%=      5-min Rain = 0
KFLS 211420Z 28011KT 08/M01 A2997 RMK A01 T00811011  RH  053%=      5-min Rain = 0
KFLS 211425Z 27011KT 08/M01 A2997 RMK A01 T00811011  RH  053%=      5-min Rain = 0
KFLS 211430Z 27011KT 08/M01 A2997 RMK A01 T00831011  RH  052%=      5-min Rain = 0
KFLS 211435Z 26012KT 08/M01 A2997 RMK A01 T00841011  RH  052%=      5-min Rain = 0
KFLS 211440Z 27011KT 08/M01 A2997 RMK A01 T00841011  RH  052%=      5-min Rain = 0
KFLS 211445Z 27011KT 09/M01 A2997 RMK A01 T00851011  RH  051%=      5-min Rain = 0
KFLS 211450Z 27010KT 09/M01 A2998 RMK A01 T00861011  RH  051%=      5-min Rain = 0
KFLS 211455Z 27009KT 09/M01 A2998 RMK A01 T00871011  RH  051%=      5-min Rain = 0
KFLS 211500Z 28009KT 09/M01 A2998 RMK A01 T00881010  RH  051%=      5-min Rain = 0
KFLS 211505Z 28010KT 09/M01 A2998 RMK A01 T00891011  RH  050%=      5-min Rain = 0
KFLS 211510Z 28011G17KT 09/M01 A2997 RMK A01 T00901011  RH  050%=      5-min Rain = 0
KFLS 211515Z 28012KT 09/M01 A2997 RMK A01 T00921012  RH  049%=      5-min Rain = 0
KFLS 211520Z 28011KT 09/M01 A2998 RMK A01 T00931012  RH  048%=      5-min Rain = 0
KFLS 211525Z 29012KT 10/M01 A2998 RMK A01 T00951013  RH  047%=      5-min Rain = 0
KFLS 211530Z 27011KT 10/M01 A2998 RMK A01 T00971012  RH  047%=      5-min Rain = 0
KFLS 211535Z 26010KT 10/M01 A2998 RMK A01 T00981012  RH  047%=      5-min Rain = 0
KFLS 211540Z 26012KT 10/M01 A2998 RMK A01 T00991012  RH  046%=      5-min Rain = 0
KFLS 211545Z 26011KT 10/M01 A2998 RMK A01 T00991012  RH  046%=      5-min Rain = 0
KFLS 211550Z 26012KT 10/M01 A2998 RMK A01 T00991012  RH  046%=      5-min Rain = 0
KFLS 211555Z 26010KT 10/M01 A2999 RMK A01 T00981011  RH  047%=      5-min Rain = 0
KFLS 211600Z 26011KT 10/M01 A2999 RMK A01 T00981011  RH  047%=      5-min Rain = 0
KFLS 211605Z 26012KT 10/M01 A2999 RMK A01 T00981011  RH  047%=      5-min Rain = 0
KFLS 211610Z 26013KT 10/M01 A2999 RMK A01 T00981012  RH  047%=      5-min Rain = 0
KFLS 211615Z 26012KT 10/M01 A2999 RMK A01 T01001011  RH  046%=      5-min Rain = 0
KFLS 211620Z 27011G16KT 10/M01 A2999 RMK A01 T01021012  RH  046%=      5-min Rain = 0
KFLS 211625Z 27011KT 10/M01 A2999 RMK A01 T01031012  RH  045%=      5-min Rain = 0
KFLS 211630Z 27011KT 10/M01 A2999 RMK A01 T01041012  RH  045%=      5-min Rain = 0
KFLS 211635Z 27011KT 11/M01 A2998 RMK A01 T01061012  RH  044%=      5-min Rain = 0
KFLS 211640Z 28013KT 11/M01 A2998 RMK A01 T01071012  RH  044%=      5-min Rain = 0
KFLS 211645Z 27014KT 11/M01 A2999 RMK A01 T01081012  RH  044%=      5-min Rain = 0
KFLS 211650Z 27013KT 11/M01 A2999 RMK A01 T01081011  RH  044%=      5-min Rain = 0
KFLS 211655Z 27011KT 11/M01 A2999 RMK A01 T01111009  RH  044%=      5-min Rain = 0
KFLS 211700Z 27012G17KT 11/M01 A2999 RMK A01 T01131009  RH  043%=      5-min Rain = 0
KFLS 211705Z 27011KT 11/M01 A2999 RMK A01 T01141009  RH  043%=      5-min Rain = 0
KFLS 211710Z 27011KT 12/M01 A2999 RMK A01 T01181008  RH  042%=      5-min Rain = 0
KFLS 211715Z 28012KT 12/M01 A2999 RMK A01 T01211009  RH  041%=      5-min Rain = 0
KFLS 211720Z 27013KT 12/M01 A2998 RMK A01 T01221012  RH  040%=      5-min Rain = 0
KFLS 211725Z 27013KT 13/M01 A2998 RMK A01 T01251012  RH  039%=      5-min Rain = 0
KFLS 211730Z 27013KT 13/M01 A2998 RMK A01 T01271010  RH  039%=      5-min Rain = 0
KFLS 211735Z 27014KT 13/M01 A2998 RMK A01 T01301010  RH  038%=      5-min Rain = 0
KFLS 211740Z 27015KT 13/M01 A2997 RMK A01 T01311011  RH  038%=      5-min Rain = 0
KFLS 211745Z 27016KT 13/M01 A2997 RMK A01 T01311012  RH  037%=      5-min Rain = 0
KFLS 211750Z 27014KT 13/M01 A2997 RMK A01 T01331013  RH  037%=      5-min Rain = 0
KFLS 211755Z 27014KT 13/M01 A2997 RMK A01 T01341013  RH  037%=      5-min Rain = 0
KFLS 211800Z 27014KT 13/M01 A2996 RMK A01 T01341013  RH  036%=      5-min Rain = 0
KFLS 211805Z 28013KT 14/M01 A2996 RMK A01 T01361013  RH  036%=      5-min Rain = 0
KFLS 211810Z 28013G18KT 14/M01 A2995 RMK A01 T01381013  RH  036%=      5-min Rain = 0
KFLS 211815Z 28015KT 14/M02 A2995 RMK A01 T01381016  RH  035%=      5-min Rain = 0
KFLS 211820Z 28013KT 14/M01 A2995 RMK A01 T01401014  RH  035%=      5-min Rain = 0
KFLS 211825Z 28013KT 14/M01 A2994 RMK A01 T01421014  RH  035%=      5-min Rain = 0
KFLS 211830Z 28014KT 14/M02 A2994 RMK A01 T01411017  RH  034%=      5-min Rain = 0
KFLS 211835Z 28014KT 14/M02 A2993 RMK A01 T01401019  RH  034%=      5-min Rain = 0
KFLS 211840Z 28013KT 14/M02 A2993 RMK A01 T01391018  RH  034%=      5-min Rain = 0
KFLS 211845Z 28013KT 14/M02 A2992 RMK A01 T01411017  RH  034%=      5-min Rain = 0
KFLS 211850Z 28013KT 14/M02 A2992 RMK A01 T01421017  RH  034%=      5-min Rain = 0
KFLS 211855Z 28011KT 14/M02 A2992 RMK A01 T01431018  RH  033%=      5-min Rain = 0
KFLS 211900Z 27012KT 14/M02 A2991 RMK A01 T01401019  RH  034%=      5-min Rain = 0
KFLS 211905Z 28011KT 14/M02 A2991 RMK A01 T01401019  RH  033%=      5-min Rain = 0
KFLS 211910Z 28011KT 14/M02 A2991 RMK A01 T01391019  RH  034%=      5-min Rain = 0
KFLS 211915Z 28010KT 14/M02 A299 RMK A01 T01391020  RH  034%=      5-min Rain = 0
KFLS 211920Z 28010KT 14/M02 A299 RMK A01 T01421019  RH  033%=      5-min Rain = 0
KFLS 211925Z 28010KT 14/M02 A299 RMK A01 T01431018  RH  033%=      5-min Rain = 0
KFLS 211930Z 28010KT 14/M02 A299 RMK A01 T01431018  RH  033%=      5-min Rain = 0
KFLS 211935Z 27010KT 15/M02 A299 RMK A01 T01471020  RH  032%=      5-min Rain = 0
KFLS 211940Z 27010KT 15/M02 A2989 RMK A01 T01491021  RH  031%=      5-min Rain = 0
KFLS 211945Z 28009KT 15/M02 A2989 RMK A01 T01541021  RH  030%=      5-min Rain = 0
KFLS 211950Z 27009KT 16/M02 A2989 RMK A01 T01571023  RH  029%=      5-min Rain = 0
KFLS 211955Z 27008KT 16/M02 A2988 RMK A01 T01621022  RH  029%=      5-min Rain = 0
KFLS 212000Z 26008KT 16/M02 A2988 RMK A01 T01621022  RH  029%=      5-min Rain = 0
KFLS 212005Z 25008KT 16/M02 A2988 RMK A01 T01631022  RH  029%=      5-min Rain = 0
KFLS 212010Z 26009KT 16/M03 A2988 RMK A01 T01641025  RH  028%=      5-min Rain = 0
KFLS 212015Z 25009KT 17/M03 A2988 RMK A01 T01681025  RH  027%=      5-min Rain = 0
KFLS 212020Z 24010KT 17/M03 A2987 RMK A01 T01671025  RH  027%=      5-min Rain = 0
KFLS 212025Z 25009KT 17/M03 A2987 RMK A01 T01681028  RH  026%=      5-min Rain = 0
KFLS 212030Z 24008KT 17/M03 A2987 RMK A01 T01691026  RH  027%=      5-min Rain = 0
KFLS 212035Z 23007KT 17/M03 A2987 RMK A01 T01711025  RH  026%=      5-min Rain = 0
KFLS 212040Z 24009KT 17/M03 A2987 RMK A01 T01721028  RH  026%=      5-min Rain = 0
KFLS 212045Z 24009KT 18/M03 A2987 RMK A01 T01751029  RH  025%=      5-min Rain = 0
KFLS 212050Z 24009KT 18/M03 A2986 RMK A01 T01761027  RH  025%=      5-min Rain = 0
KFLS 212055Z 23007KT 18/M02 A2986 RMK A01 T01831024  RH  025%=      5-min Rain = 0
KFLS 212100Z 25008KT 18/M03 A2986 RMK A01 T01801027  RH  025%=      5-min Rain = 0
KFLS 212105Z 25007KT 18/M03 A2986 RMK A01 T01811025  RH  025%=      5-min Rain = 0
KFLS 212110Z 25008KT 18/M02 A2986 RMK A01 T01841024  RH  024%=      5-min Rain = 0
KFLS 212115Z 25009KT 18/M02 A2986 RMK A01 T01841023  RH  025%=      5-min Rain = 0
KFLS 212120Z 24009KT 19/M02 A2985 RMK A01 T01931022  RH  024%=      5-min Rain = 0
KFLS 212125Z 23009G14KT 20/M02 A2985 RMK A01 T01981022  RH  023%=      5-min Rain = 0
KFLS 212130Z 24011G16KT 20/M02 A2985 RMK A01 T01991024  RH  022%=      5-min Rain = 0
KFLS 212135Z 24011KT 20/M02 A2985 RMK A01 T01991024  RH  022%=      5-min Rain = 0
KFLS 212140Z 23012KT 20/M02 A2985 RMK A01 T01981023  RH  023%=      5-min Rain = 0
KFLS 212145Z 22011KT 20/M02 A2984 RMK A01 T01961023  RH  023%=      5-min Rain = 0
KFLS 212150Z 22010KT 20/M02 A2984 RMK A01 T01961024  RH  023%=      5-min Rain = 0
KFLS 212155Z 22010KT 19/M02 A2984 RMK A01 T01911024  RH  023%=      5-min Rain = 0
KFLS 212200Z 22009KT 19/M02 A2984 RMK A01 T01901023  RH  024%=      5-min Rain = 0
KFLS 212205Z 23007KT 19/M02 A2984 RMK A01 T01941022  RH  023%=      5-min Rain = 0
KFLS 212210Z 21008KT 20/M02 A2984 RMK A01 T01951023  RH  023%=      5-min Rain = 0
KFLS 212215Z 22009KT 20/M02 A2984 RMK A01 T02041022  RH  022%=      5-min Rain = 0
KFLS 212220Z 21009KT 21/M02 A2984 RMK A01 T02061022  RH  022%=      5-min Rain = 0
KFLS 212225Z 22009KT 21/M02 A2984 RMK A01 T02051020  RH  022%=      5-min Rain = 0
KFLS 212230Z 22010KT 20/M02 A2985 RMK A01 T02031015  RH  023%=      5-min Rain = 0
KFLS 212235Z 22012KT 20/M01 A2985 RMK A01 T02001012  RH  024%=      5-min Rain = 0
KFLS 212240Z 22013KT 20/M01 A2985 RMK A01 T01971012  RH  025%=      5-min Rain = 0
KFLS 212245Z 23012G17KT 20/M01 A2985 RMK A01 T01961011  RH  025%=      5-min Rain = 0
KFLS 212250Z 22012KT 20/M01 A2985 RMK A01 T01961010  RH  025%=      5-min Rain = 0
KFLS 212255Z 22012G17KT 19/M01 A2984 RMK A01 T01941009  RH  026%=      5-min Rain = 0
KFLS 212300Z 23012G18KT 19/M01 A2984 RMK A01 T01941008  RH  026%=      5-min Rain = 0
KFLS 212305Z 23013KT 19/M01 A2984 RMK A01 T01921007  RH  026%=      5-min Rain = 0
KFLS 212310Z 23012KT 19/M01 A2985 RMK A01 T01931006  RH  027%=      5-min Rain = 0
KFLS 212315Z 23011G16KT 19/M01 A2985 RMK A01 T01921005  RH  027%=      5-min Rain = 0
KFLS 212320Z 22010G15KT 19/M00 A2985 RMK A01 T01901004  RH  027%=      5-min Rain = 0
KFLS 212325Z 22010KT 18/M00 A2985 RMK A01 T01841004  RH  029%=      5-min Rain = 0
KFLS 212330Z 22008KT 18/M00 A2985 RMK A01 T01801004  RH  029%=      5-min Rain = 0
KFLS 212335Z 21009KT 18/M00 A2985 RMK A01 T01761003  RH  030%=      5-min Rain = 0
KFLS 212340Z 21010KT 18/M00 A2985 RMK A01 T01751002  RH  030%=      5-min Rain = 0
KFLS 212345Z 21010KT 17/M00 A2985 RMK A01 T01741003  RH  031%=      5-min Rain = 0
KFLS 212350Z 21009KT 17/M00 A2986 RMK A01 T01721003  RH  031%=      5-min Rain = 0
KFLS 212355Z 21010KT 17/M00 A2986 RMK A01 T01701003  RH  031%=      5-min Rain = 0
KFLS 220000Z 21010KT 17/M00 A2986 RMK A01 T01701003  RH  031%=      5-min Rain = 0
KFLS 220005Z 21009KT 17/M00 A2986 RMK A01 T01691003  RH  031%=      5-min Rain = 0
KFLS 220010Z 21008KT 17/M00 A2987 RMK A01 T01661003  RH  032%=      5-min Rain = 0
KFLS 220015Z 21009KT 16/M00 A2987 RMK A01 T01641003  RH  032%=      5-min Rain = 0
KFLS 220020Z 22008KT 16/M00 A2987 RMK A01 T01621003  RH  033%=      5-min Rain = 0
KFLS 220025Z 22007KT 16/M00 A2987 RMK A01 T01611003  RH  033%=      5-min Rain = 0
KFLS 220030Z 22006KT 16/M00 A2987 RMK A01 T01591003  RH  034%=      5-min Rain = 0
KFLS 220035Z 22006KT 16/M00 A2987 RMK A01 T01581003  RH  034%=      5-min Rain = 0
KFLS 220040Z 23005KT 15/M00 A2988 RMK A01 T01541003  RH  035%=      5-min Rain = 0
KFLS 220045Z 23005KT 15/M00 A2988 RMK A01 T01461003  RH  036%=      5-min Rain = 0
KFLS 220050Z 23005KT 14/M00 A2988 RMK A01 T01441002  RH  037%=      5-min Rain = 0
KFLS 220055Z 24005KT 14/M00 A2988 RMK A01 T01361004  RH  039%=      5-min Rain = 0
KFLS 220100Z 23006KT 13/M00 A2988 RMK A01 T01311003  RH  040%=      5-min Rain = 0
KFLS 220105Z 23007KT 14/M00 A2989 RMK A01 T01361001  RH  039%=      5-min Rain = 0
KFLS 220110Z 22007KT 14/00 A2989 RMK A01 T01440001  RH  038%=      5-min Rain = 0
KFLS 220115Z 22007KT 15/00 A2989 RMK A01 T01510001  RH  036%=      5-min Rain = 0
KFLS 220120Z 23006KT 15/00 A2989 RMK A01 T01520001  RH  036%=      5-min Rain = 0
KFLS 220125Z 23006KT 15/00 A2989 RMK A01 T01520002  RH  036%=      5-min Rain = 0
KFLS 220130Z 23006KT 15/00 A2989 RMK A01 T01530004  RH  036%=      5-min Rain = 0
KFLS 220135Z 22006KT 15/00 A2989 RMK A01 T01530004  RH  037%=      5-min Rain = 0
KFLS 220140Z 22006KT 15/00 A2988 RMK A01 T01540004  RH  036%=      5-min Rain = 0
KFLS 220145Z 21007KT 15/00 A2988 RMK A01 T01500004  RH  037%=      5-min Rain = 0
KFLS 220150Z 21006KT 15/00 A2989 RMK A01 T01470004  RH  038%=      5-min Rain = 0
KFLS 220155Z 21006KT 15/00 A2989 RMK A01 T01490004  RH  038%=      5-min Rain = 0
KFLS 220200Z 22005KT 14/00 A2988 RMK A01 T01430003  RH  039%=      5-min Rain = 0
KFLS 220205Z 22005KT 14/00 A2988 RMK A01 T01440004  RH  039%=      5-min Rain = 0
KFLS 220210Z 21005KT 15/01 A2988 RMK A01 T01460005  RH  038%=      5-min Rain = 0
KFLS 220215Z 21005KT 14/01 A2989 RMK A01 T01420005  RH  040%=      5-min Rain = 0
KFLS 220220Z 21005KT 14/01 A2989 RMK A01 T01410006  RH  040%=      5-min Rain = 0
KFLS 220225Z 21006KT 14/01 A2989 RMK A01 T01360007  RH  042%=      5-min Rain = 0
KFLS 220230Z 19007KT 13/01 A2989 RMK A01 T01330007  RH  043%=      5-min Rain = 0
KFLS 220235Z 20005KT 13/01 A2989 RMK A01 T01280009  RH  045%=      5-min Rain = 0
KFLS 220240Z 19004KT 13/01 A2989 RMK A01 T01290010  RH  045%=      5-min Rain = 0
KFLS 220245Z 18004KT 12/01 A2989 RMK A01 T01240009  RH  046%=      5-min Rain = 0
KFLS 220250Z 18006KT 13/02 A2989 RMK A01 T01320016  RH  046%=      5-min Rain = 0
KFLS 220255Z 15003KT 13/01 A2989 RMK A01 T01320012  RH  044%=      5-min Rain = 0
KFLS 220300Z 09004KT 12/01 A2989 RMK A01 T01170007  RH  047%=      5-min Rain = 0
KFLS 220305Z 07007KT 12/01 A2989 RMK A01 T01170010  RH  048%=      5-min Rain = 0
KFLS 220310Z 07006KT 11/00 A2989 RMK A01 T01090004  RH  049%=      5-min Rain = 0
KFLS 220315Z 06008KT 10/00 A2989 RMK A01 T01020003  RH  051%=      5-min Rain = 0
KFLS 220320Z 05008KT 10/00 A299 RMK A01 T01010001  RH  050%=      5-min Rain = 0
KFLS 220325Z 06005KT 10/M00 A2991 RMK A01 T01011001  RH  050%=      5-min Rain = 0
KFLS 220330Z 06005KT 10/M00 A2991 RMK A01 T00981002  RH  050%=      5-min Rain = 0
KFLS 220335Z 07005KT 10/M00 A2991 RMK A01 T00971003  RH  050%=      5-min Rain = 0
KFLS 220340Z 08006KT 10/M00 A2991 RMK A01 T00961003  RH  051%=      5-min Rain = 0
KFLS 220345Z 08006KT 09/M00 A299 RMK A01 T00921003  RH  052%=      5-min Rain = 0
KFLS 220350Z 08006KT 09/M00 A299 RMK A01 T00881003  RH  053%=      5-min Rain = 0
KFLS 220355Z 09007KT 09/M00 A2989 RMK A01 T00861003  RH  054%=      5-min Rain = 0
KFLS 220400Z 07006KT 09/M00 A2989 RMK A01 T00861003  RH  054%=      5-min Rain = 0
KFLS 220405Z 07006KT 08/M01 A2989 RMK A01 T00831005  RH  055%=      5-min Rain = 0
KFLS 220410Z 08007KT 08/M01 A2989 RMK A01 T00791006  RH  056%=      5-min Rain = 0
KFLS 220415Z 07007KT 08/M01 A2989 RMK A01 T00751007  RH  057%=      5-min Rain = 0
KFLS 220420Z 07008KT 07/M01 A2989 RMK A01 T00731006  RH  058%=      5-min Rain = 0
KFLS 220425Z 04008KT 07/M01 A299 RMK A01 T00701007  RH  059%=      5-min Rain = 0
KFLS 220430Z 03007KT 06/M01 A299 RMK A01 T00631010  RH  061%=      5-min Rain = 0
KFLS 220435Z 04006KT 06/M01 A299 RMK A01 T00611008  RH  062%=      5-min Rain = 0
KFLS 220440Z 03006KT 06/M01 A2991 RMK A01 T00591009  RH  062%=      5-min Rain = 0
KFLS 220445Z 03007KT 05/M01 A2991 RMK A01 T00531011  RH  064%=      5-min Rain = 0
KFLS 220450Z 03008KT 05/M01 A2991 RMK A01 T00501010  RH  066%=      5-min Rain = 0
KFLS 220455Z 03007KT 05/M01 A2991 RMK A01 T00511009  RH  066%=      5-min Rain = 0
KFLS 220500Z 03007KT 05/M01 A2992 RMK A01 T00501009  RH  066%=      5-min Rain = 0
KFLS 220505Z 04007KT 05/M01 A2992 RMK A01 T00511009  RH  066%=      5-min Rain = 0
KFLS 220510Z 04007KT 05/M01 A2991 RMK A01 T00471011  RH  067%=      5-min Rain = 0
KFLS 220515Z 05006KT 05/M01 A2991 RMK A01 T00451011  RH  068%=      5-min Rain = 0
KFLS 220520Z 05005KT 04/M01 A2991 RMK A01 T00421012  RH  068%=      5-min Rain = 0
KFLS 220525Z 04005KT 04/M01 A2992 RMK A01 T00441011  RH  068%=      5-min Rain = 0
KFLS 220530Z 05004KT 04/M01 A2992 RMK A01 T00411013  RH  068%=      5-min Rain = 0
KFLS 220535Z 05005KT 04/M01 A2992 RMK A01 T00421012  RH  069%=      5-min Rain = 0
KFLS 220540Z 03008KT 04/M01 A2993 RMK A01 T00401013  RH  069%=      5-min Rain = 0
KFLS 220545Z 04007KT 04/M01 A2993 RMK A01 T00371012  RH  071%=      5-min Rain = 0
KFLS 220550Z 07006KT 03/M01 A2992 RMK A01 T00341013  RH  072%=      5-min Rain = 0
KFLS 220555Z 08006KT 04/M01 A2992 RMK A01 T00361011  RH  072%=      5-min Rain = 0

Page generated in 0.0086 seconds.